• Join FlightAware (Why Join?)
  • Login
  • US Flag 
10:01PM EDT


 

Airport Tracker/Info


-or-


 

Live Flight TrackerFlight Track Log ✈ THY386 ✈ 14-Jul-2013 ✈ LTBA / IST - UGTB / TBS

Flight Track Log - Related Links

Times and Time Zones

All times are in EDT time to prevent confusion due to time zone crossing. See the THY386 flight status page for this flight to view local times or setup timezone preferences in your user account.

Time Position Orientation Groundspeed Altitude Reporting Facility
EDT Latitude Longitude Course Direction KTS MPH feet Rate Location/Type
05:22PM 40.9740 28.8120 177° South 9 10  Level FlightAware
05:22PM 40.9730 28.8120 180° South 8 9 480 Level FlightAware
05:23PM 40.9720 28.8120 180° South 10 12 540 Level FlightAware
05:24PM 40.9700 28.8100 217° Southwest 12 14 600 Level FlightAware
05:26PM 41.0003 29.0770 81° East  Level Estimated
05:26PM 41.0260 28.8060 82° East 1,900  Level FlightAware
05:27PM 41.0170 29.2269 82° East  Level Estimated
05:27PM 41.0550 28.8100 North 216 249 2,500  Level FlightAware
05:27PM 41.0670 28.8280 49° Northeast 241 277 2,900 1,620 Climbing FlightAware
05:28PM 41.0910 28.8960 65° Northeast 259 298 4,300 1,560 Climbing FlightAware
05:28PM 41.1060 28.9290 59° Northeast 256 295 4,900 1,920 Climbing FlightAware
05:29PM 41.1230 28.9760 64° Northeast 263 303 6,100 2,580 Climbing FlightAware
05:29PM 41.1380 29.0200 66° East 276 318 7,500 2,520 Climbing FlightAware
05:30PM 41.1500 29.0560 66° East 281 323 8,400 2,520 Climbing FlightAware
05:30PM 41.1770 29.1300 64° Northeast 288 331 10,500 2,100 Climbing FlightAware
05:31PM 41.2020 29.2040 66° East 335 386 11,500 2,100 Climbing FlightAware
05:32PM 41.2290 29.2850 66° East 350 403 13,300 2,700 Climbing FlightAware
05:33PM 41.2570 29.3670 66° East 362 417 15,100 2,640 Climbing FlightAware
05:33PM 41.2880 29.4580 66° East 371 427 17,100 2,520 Climbing FlightAware
05:34PM 41.3200 29.5510 65° Northeast 385 443 18,900 2,220 Climbing FlightAware
05:35PM 41.3500 29.6400 66° East 397 457 20,400 2,160 Climbing FlightAware
05:35PM 41.3800 29.7280 66° East 406 467 21,800 2,100 Climbing FlightAware
05:36PM 41.4170 29.8380 66° East 417 480 23,400 1,980 Climbing FlightAware
05:37PM 41.4560 29.9550 66° East 426 490 25,000 1,860 Climbing FlightAware
05:38PM 41.4900 30.0560 66° East 438 504 26,200 1,560 Climbing FlightAware
05:38PM 41.5190 30.1460 67° East 448 516 27,100 1,500 Climbing FlightAware
05:39PM 41.5610 30.2720 66° East 458 527 28,300 1,320 Climbing FlightAware
05:40PM 41.6050 30.4410 71° East 474 545 29,600 1,080 Climbing FlightAware
05:41PM 41.6160 30.5800 84° East 492 566 30,300 780 Climbing FlightAware
05:42PM 41.6300 30.7730 84° East 512 589 31,100 600 Climbing FlightAware
05:43PM 41.6400 30.9000 84° East 516 594 31,400 540 Climbing FlightAware
05:43PM 41.6510 31.0650 85° East 528 608 32,000 1,020 Climbing FlightAware
05:45PM 41.6690 31.3370 85° East 539 620 33,700 1,200 Climbing FlightAware
05:46PM 41.6820 31.5510 85° East 532 612 34,900 660 Climbing FlightAware
05:47PM 41.6910 31.7030 85° East 531 611 35,000 60 Climbing FlightAware
05:47PM 41.6970 31.8060 86° East 531 611 35,000  Level FlightAware
05:48PM 41.7040 31.9400 86° East 531 611 35,000  Level FlightAware
05:49PM 41.7170 32.1040 84° East 530 610 35,000  Level FlightAware
05:49PM 41.7250 32.2460 86° East 530 610 35,000  Level FlightAware
05:50PM 41.7300 32.3460 86° East 530 610 35,000  Level FlightAware
05:51PM 41.7410 32.5290 85° East 530 610 35,000  Level FlightAware
05:52PM 41.7480 32.6520 86° East 530 610 35,000  Level FlightAware
05:52PM 41.7530 32.7530 86° East 530 610 35,000 1,200 Level FlightAware
05:53PM 41.7620 32.9160 86° East 525 604 36,600 960 Climbing FlightAware
05:54PM 41.7720 33.1040 86° East 524 603 36,700 60 Climbing FlightAware
05:54PM 41.7770 33.2040 86° East 524 603 36,700  Level FlightAware
05:55PM 41.7840 33.3360 86° East 524 603 36,700  Level FlightAware
05:56PM 41.7890 33.4350 86° East 524 603 36,700  Level FlightAware
05:57PM 41.7960 33.5680 86° East 524 603 36,700  Level FlightAware
05:57PM 41.8010 33.6670 86° East 524 603 36,700  Level FlightAware
05:58PM 41.8060 33.7660 86° East 524 603 36,700  Level FlightAware
05:59PM 41.8110 33.8680 86° East 524 603 36,700  Level FlightAware
05:59PM 41.8180 34.0010 86° East 524 603 36,700  Level FlightAware
06:00PM 41.8230 34.1000 86° East 524 603 36,700  Level FlightAware
06:01PM 41.8290 34.2020 85° East 524 603 36,700  Level FlightAware
06:01PM 41.8360 34.3370 86° East 524 603 36,700  Level FlightAware
06:02PM 41.8410 34.4360 86° East 524 603 36,700  Level FlightAware
06:03PM 41.8480 34.5690 86° East 524 603 36,700  Level FlightAware
06:05PM 41.8565 34.8917 88° East  Level Estimated
06:06PM 41.8610 35.0743 88° East  Level Estimated
06:07PM 41.8651 35.2570 88° East  Level Estimated
06:08PM 41.8690 35.4398 88° East  Level Estimated
06:09PM 41.8726 35.6225 88° East  Level Estimated
06:10PM 41.8759 35.8053 89° East  Level Estimated
06:11PM 41.8788 35.9881 89° East  Level Estimated
06:12PM 41.8815 36.1709 89° East  Level Estimated
06:13PM 41.8839 36.3537 89° East  Level Estimated
06:14PM 41.8861 36.5365 89° East  Level Estimated
06:15PM 41.8879 36.7194 89° East  Level Estimated
06:16PM 41.8894 36.9022 89° East  Level Estimated
06:16PM 41.8990 37.3520 89° East 527 606 37,000  Level FlightAware
06:17PM 41.8970 37.5240 91° East 527 606 37,000  Level FlightAware
06:17PM 41.8950 37.6730 91° East 527 606 37,000  Level FlightAware
06:18PM 41.8950 37.7730 90° East 527 606 37,000  Level FlightAware
06:19PM 41.8950 37.9060 90° East 527 606 37,000  Level FlightAware
06:19PM 41.8850 38.0990 94° East 525 604 37,000  Level FlightAware
06:20PM 41.8820 38.2110 92° East 523 602 37,000  Level FlightAware
06:21PM 41.8800 38.3280 91° East 524 603 37,000  Level FlightAware
06:22PM 41.8740 38.5640 92° East 526 605 37,000  Level FlightAware
06:22PM 41.8700 38.6820 93° East 528 608 37,000  Level FlightAware
06:23PM 41.8660 38.8420 92° East 529 609 37,000  Level FlightAware
06:24PM 41.8620 38.9800 92° East 528 608 37,000  Level FlightAware
06:25PM 41.8570 39.1270 93° East 528 608 37,000  Level FlightAware
06:25PM 41.8530 39.2770 92° East 529 609 37,000  Level FlightAware
06:26PM 41.8480 39.4040 93° East 528 608 37,000  Level FlightAware
06:27PM 41.8440 39.5320 92° East 528 608 37,000  Level FlightAware
06:27PM 41.8390 39.6560 93° East 527 606 37,000  Level FlightAware
06:28PM 41.8340 39.7990 93° East 527 606 37,000  Level FlightAware
06:29PM 41.8290 39.9260 93° East 525 604 37,000  Level FlightAware
06:30PM 41.8230 40.0820 93° East 526 605 37,000  Level FlightAware
06:30PM 41.8170 40.2410 93° East 525 604 37,000  Level FlightAware
06:31PM 41.8110 40.3770 93° East 524 603 37,000  Level FlightAware
06:32PM 41.8020 40.6040 93° East 523 602 37,000  Level FlightAware
06:33PM 41.7980 40.7030 93° East 523 602 37,000  Level FlightAware
06:34PM 41.7930 40.8990 92° East 523 602 37,000  Level FlightAware
06:35PM 41.7890 41.0640 92° East 523 602 37,000  Level FlightAware
06:36PM 41.7850 41.1970 92° East 523 602 37,000  Level FlightAware
06:36PM 41.7830 41.2960 92° East 523 602 37,000  Level FlightAware
06:37PM 41.7790 41.4280 92° East 523 602 37,000  Level FlightAware
06:38PM 41.7750 41.5940 92° East 523 602 37,000  Level FlightAware
06:39PM 41.7720 41.6930 92° East 523 602 37,000  Level FlightAware
06:39PM 41.7690 41.8250 92° East 523 602 37,000  Level FlightAware
06:40PM 41.7660 41.9240 92° East 523 602 37,000  Level FlightAware
06:41PM 41.7630 42.0290 92° East 523 602 37,000  Level FlightAware
06:41PM 41.7600 42.1560 92° East 523 602 37,000  Level FlightAware
06:42PM 41.7580 42.2220 92° East 523 602 37,000  Level FlightAware
06:43PM 41.7550 42.3570 92° East 523 602 37,000  Level FlightAware
06:43PM 41.7520 42.4560 92° East 523 602 37,000 -3,840 Level FlightAware
06:45PM 41.6860 43.1120 97° East 25,800 -4,740 Descending FlightAware
06:46PM 41.6790 43.2370 94° East 484 557 24,600 -1,800 Descending FlightAware
06:47PM 41.6710 43.3630 95° East 463 533 23,200 -2,160 Descending FlightAware
06:47PM 41.6650 43.4690 94° East 449 517 21,700 -2,460 Descending FlightAware
06:48PM 41.6570 43.6000 95° East 438 504 19,800 -2,460 Descending FlightAware
06:49PM 41.6510 43.6960 95° East 429 494 18,300 -2,040 Descending FlightAware
06:49PM 41.6430 43.8190 95° East 404 465 17,000 -1,800 Descending FlightAware
06:50PM 41.6360 43.9210 95° East 389 448 15,700 -2,160 Descending FlightAware
06:51PM 41.6290 44.0380 95° East 384 442 13,800 -1,920 Descending FlightAware
06:51PM 41.6240 44.1120 95° East 368 423 13,000 -600 Descending FlightAware
06:52PM 41.6130 44.2140 98° East 316 364 13,000  Level FlightAware
06:53PM 41.6030 44.2970 99° East 306 352 13,000  Level FlightAware
06:54PM 41.5920 44.3940 99° East 291 335 13,000 -360 Level FlightAware
06:55PM 41.5840 44.4660 98° East 294 338 12,500 -420 Descending FlightAware
06:55PM 41.5780 44.5240 98° East 294 338 12,500  Level FlightAware
06:56PM 41.5720 44.5790 98° East 294 338 12,500 -2,340 Level FlightAware
06:56PM 41.5620 44.6510 100° East 268 308 9,900 -3,180 Descending FlightAware
06:57PM 41.5560 44.7000 99° East 266 306 9,200 -1,440 Descending FlightAware
06:57PM 41.5510 44.7390 100° East 263 303 8,600 -1,680 Descending FlightAware
06:57PM 41.5480 44.7610 100° East 260 299 8,200 -1,500 Descending FlightAware
06:58PM 41.5400 44.8140 101° East 255 293 7,400 -1,440 Descending FlightAware
06:58PM 41.5320 44.8520 106° East 254 292 6,800 -1,500 Descending FlightAware
06:59PM 41.5280 44.8700 107° East 253 291 6,500 -1,500 Descending FlightAware
07:01PM 41.6692 44.9547 24° Northeast  Level Estimated
07:02PM 41.6692 44.9547 154° Southeast  Level Estimated
07:03PM 41.6692 44.9547 154° Southeast  Level Estimated
07:04PM 41.6692 44.9547 154° Southeast  Level Estimated
07:05PM 41.6692 44.9547 154° Southeast  Level Estimated
07:06PM 41.6692 44.9547 154° Southeast  Level Estimated
07:07PM 41.6692 44.9547 154° Southeast  Level Estimated
07:08PM 41.6692 44.9547 154° Southeast  Level Estimated
07:09PM 41.6692 44.9547 154° Southeast  Level Estimated
07:10PM 41.6692 44.9547 154° Southeast  Level Estimated